Weather at Strawbridge & Clothier Exton Heliport

Public forecast

Using degrees Fahrenheit for public forecast. Weather courtesy of forecast.io.

Closest aviation weather report (METAR) to Strawbridge & Clothier Exton Heliport

Closest report is Brandywine Regional Airport, 3.3 nm (6.1 km) SE. Retrieved 2020/09/26 10:35 UTC (13 minutes ago):

KOQN 261035Z AUTO 00000KT 7SM SCT028 BKN060 OVC120 16/15 A3008 RMK AO2 LTG DSNT S

Closest aviation forecast (TAF) to Strawbridge & Clothier Exton Heliport

Closest forecast is Philadelphia International Airport, 20.3 nm (37.6 km) ESE. Retrieved 2020/09/26 06:24 UTC (4 hours ago):

TAF KPHL 260522Z 2606/2712 VRB03KT P6SM SCT070 BKN120 FM260900 VRB03KT P6SM -SHRA SCT012 OVC025 FM261400 12005KT P6SM -SHRA SCT012 OVC020 FM261900 17007KT P6SM BKN025 OVC040 FM270000 17006KT P6SM -DZ BKN020 FM270800 VRB02KT 5SM -DZ BR BKN008